Cascade, MT (59421)

11:57 AM MST on February 23, 2017 (GMT -0700)
Trout Montana Fly Shop, Cascade, MT | | Change Station

Elev 3376 ft 47.27 °N, 111.70 °W | Updated 4 minutes ago

Overcast
Overcast
28.0 °F
Feels Like 20 °F
N
8.0
Wind Variable Wind from NNW
Gusts 11.0 mph

Today
High -- | Low -- °F
--% Chance of Precip.
Yesterday
High -- | Low -- °F
Precip. -- in
Pressure 30.12 in
Visibility 6.0 miles
Clouds Overcast 500 ft
Windchill 20 °F
Dew Point 24 °F
Humidity 83%
Rainfall 0.01 in
Snow Depth Not available.
7:17 AM 6:03 PM
Waning Crescent, 9% visible
METAR KGTF 231853Z 03011KT 6SM BR OVC005 M03/M06 A2998 RMK AO2 SLP198 T10331056
Pressure 30.12 in
Visibility 6.0 miles
Clouds Overcast 500 ft
Windchill 20 °F
Dew Point 24 °F
Humidity 83%
Rainfall 0.01 in
Snow Depth Not available.
7:17 AM 6:03 PM
Waning Crescent, 9% visible
METAR KGTF 231853Z 03011KT 6SM BR OVC005 M03/M06 A2998 RMK AO2 SLP198 T10331056

Get Your Daily Forecast Email!

Thanks for signing up!

Be on the lookout for a verification email in your inbox.

You'll start receiving the daily forecast at 8 AM.

×

10-Day Weather Forecast

Almanac

Astronomy

Feb. 23, 2017 Rise Set
Actual Time
Civil Twilight
Nautical Twilight
Astronomical Twilight
Moon
Length of Visible Light
Length of Day
Tomorrow will be .
, % of the Moon is Illuminated

Today's Extremes

State Highs State Lows

Community

WunderPhotos

Upload Photos

1,962,540 photos uploaded!

WunderBlog® & News

Nearby

Air Quality

  Air Quality AQ Index Pollutant
Not available.

Snow Depth

Station Depth Elevation

Earthquake Activity

City Distance Mag. Time & Date
Minimum magnitude displayed is 2.5.

Coastal Water Temperatures

Place Temperature

Stations

Nearby Weather Stations

Station Location Temp. Windchill Dew Point Humidity Wind Precip. Elev Updated Type
                   

Watches & Warnings

There are currently no watches in effect.